Time,TemperatureF,DewpointF,PressureIn,WindDirection,WindDirectionDegrees,WindSpeedMPH,WindSpeedGustMPH,Humidity,HourlyPrecipIn,Conditions,Clouds,dailyrainin,SoftwareType,DateUTC
2013-05-17 00:14:00,67.3,61.0,29.74,SW,225,0.0,-999.0,79,-99.99,,,0.00,weatherlink.com 1.10,2013-05-17 04:14:00,
2013-05-17 00:29:00,66.4,59.0,29.74,SW,225,2.0,-999.0,77,-99.99,,,0.00,weatherlink.com 1.10,2013-05-17 04:29:00,
2013-05-17 00:44:00,66.8,55.0,29.75,West,265,3.0,-999.0,67,-99.99,,,0.00,weatherlink.com 1.10,2013-05-17 04:44:00,
2013-05-17 00:59:00,67.7,55.0,29.75,West,267,0.0,-999.0,63,-99.99,,,0.00,weatherlink.com 1.10,2013-05-17 04:59:00,
2013-05-17 01:14:00,67.4,53.0,29.76,West,265,6.0,-999.0,60,-99.99,,,0.00,weatherlink.com 1.10,2013-05-17 05:14:00,
2013-05-17 01:29:00,67.1,52.0,29.76,WNW,289,6.0,-999.0,58,-99.99,,,0.00,weatherlink.com 1.10,2013-05-17 05:29:00,
2013-05-17 01:44:00,66.3,51.0,29.77,WNW,289,0.0,-999.0,58,-99.99,,,0.00,weatherlink.com 1.10,2013-05-17 05:44:00,
2013-05-17 01:59:00,65.5,50.0,29.78,WNW,290,0.0,-999.0,57,-99.99,,,0.00,weatherlink.com 1.10,2013-05-17 05:59:00,
2013-05-17 02:14:00,64.7,48.0,29.78,WNW,290,1.0,-999.0,56,-99.99,,,0.00,weatherlink.com 1.10,2013-05-17 06:14:00,
2013-05-17 02:29:00,64.1,47.0,29.79,WNW,302,0.0,-999.0,54,-99.99,,,0.00,weatherlink.com 1.10,2013-05-17 06:29:00,
2013-05-17 02:44:00,64.5,46.0,29.80,WNW,302,2.0,-999.0,52,-99.99,,,0.00,weatherlink.com 1.10,2013-05-17 06:44:00,
2013-05-17 02:59:00,64.1,46.0,29.80,NW,315,6.0,-999.0,52,-99.99,,,0.00,weatherlink.com 1.10,2013-05-17 06:59:00,
2013-05-17 03:14:00,63.9,45.0,29.81,NNW,335,2.0,-999.0,51,-99.99,,,0.00,weatherlink.com 1.10,2013-05-17 07:14:00,
2013-05-17 03:29:00,64.4,43.0,29.82,NW,310,0.0,-999.0,46,-99.99,,,0.00,weatherlink.com 1.10,2013-05-17 07:29:00,
2013-05-17 03:44:00,64.0,43.0,29.83,NNW,330,4.0,-999.0,46,-99.99,,,0.00,weatherlink.com 1.10,2013-05-17 07:44:00,
2013-05-17 03:59:00,63.8,42.0,29.84,West,269,0.0,-999.0,45,-99.99,,,0.00,weatherlink.com 1.10,2013-05-17 07:59:00,
2013-05-17 04:14:00,63.1,42.0,29.84,NW,308,0.0,-999.0,46,-99.99,,,0.00,weatherlink.com 1.10,2013-05-17 08:14:00,
2013-05-17 04:29:00,61.7,42.0,29.84,NW,308,0.0,-999.0,48,-99.99,,,0.00,weatherlink.com 1.10,2013-05-17 08:29:00,
2013-05-17 04:44:00,61.0,41.0,29.85,WNW,286,0.0,-999.0,49,-99.99,,,0.00,weatherlink.com 1.10,2013-05-17 08:44:00,
2013-05-17 04:59:00,60.1,42.0,29.86,WNW,286,0.0,-999.0,52,-99.99,,,0.00,weatherlink.com 1.10,2013-05-17 08:59:00,
2013-05-17 05:14:00,58.2,43.0,29.87,WNW,286,0.0,-999.0,57,-99.99,,,0.00,weatherlink.com 1.10,2013-05-17 09:14:00,
2013-05-17 05:29:00,55.9,43.0,29.87,WNW,286,0.0,-999.0,63,-99.99,,,0.00,weatherlink.com 1.10,2013-05-17 09:29:00,
2013-05-17 05:44:00,54.1,43.0,29.87,WNW,286,0.0,-999.0,67,-99.99,,,0.00,weatherlink.com 1.10,2013-05-17 09:44:00,
2013-05-17 05:59:00,53.3,43.0,29.88,WNW,286,1.0,-999.0,67,-99.99,,,0.00,weatherlink.com 1.10,2013-05-17 09:59:00,
2013-05-17 06:14:00,55.5,42.0,29.89,NW,322,0.0,-999.0,62,-99.99,,,0.00,weatherlink.com 1.10,2013-05-17 10:14:00,
2013-05-17 06:29:00,57.0,43.0,29.90,WNW,291,2.0,-999.0,60,-99.99,,,0.00,weatherlink.com 1.10,2013-05-17 10:29:00,
2013-05-17 06:44:00,57.8,44.0,29.90,West,260,0.0,-999.0,60,-99.99,,,0.00,weatherlink.com 1.10,2013-05-17 10:44:00,
2013-05-17 06:59:00,58.5,44.0,29.91,WNW,288,0.0,-999.0,60,-99.99,,,0.00,weatherlink.com 1.10,2013-05-17 10:59:00,
2013-05-17 07:14:00,59.5,45.0,29.93,WNW,292,1.0,-999.0,59,-99.99,,,0.00,weatherlink.com 1.10,2013-05-17 11:14:00,
2013-05-17 07:29:00,60.4,45.0,29.94,West,281,4.0,-999.0,58,-99.99,,,0.00,weatherlink.com 1.10,2013-05-17 11:29:00,
2013-05-17 07:44:00,61.4,46.0,29.94,NNW,341,2.0,-999.0,57,-99.99,,,0.00,weatherlink.com 1.10,2013-05-17 11:44:00,
2013-05-17 07:59:00,62.2,46.0,29.94,NNW,335,8.0,-999.0,56,-99.99,,,0.00,weatherlink.com 1.10,2013-05-17 11:59:00,
2013-05-17 08:14:00,62.3,46.0,29.95,NNW,342,10.0,-999.0,55,-99.99,,,0.00,weatherlink.com 1.10,2013-05-17 12:14:00,
2013-05-17 08:29:00,62.7,46.0,29.96,WNW,303,13.0,-999.0,55,-99.99,,,0.00,weatherlink.com 1.10,2013-05-17 12:29:00,
2013-05-17 08:44:00,62.9,46.0,29.96,WSW,242,2.0,-999.0,54,-99.99,,,0.00,weatherlink.com 1.10,2013-05-17 12:44:00,
2013-05-17 08:59:00,63.4,46.0,29.96,WSW,250,5.0,-999.0,53,-99.99,,,0.00,weatherlink.com 1.10,2013-05-17 12:59:00,
2013-05-17 09:14:00,64.0,46.0,29.96,WSW,243,7.0,-999.0,52,-99.99,,,0.00,weatherlink.com 1.10,2013-05-17 13:14:00,
2013-05-17 09:29:00,64.3,45.0,29.97,NW,325,8.0,-999.0,50,-99.99,,,0.00,weatherlink.com 1.10,2013-05-17 13:29:00,
2013-05-17 09:44:00,64.4,45.0,29.97,NW,321,11.0,-999.0,50,-99.99,,,0.00,weatherlink.com 1.10,2013-05-17 13:44:00,
2013-05-17 09:59:00,64.7,45.0,29.97,WNW,295,8.0,-999.0,49,-99.99,,,0.00,weatherlink.com 1.10,2013-05-17 13:59:00,
2013-05-17 10:14:00,64.6,44.0,29.97,WNW,298,5.0,-999.0,48,-99.99,,,0.00,weatherlink.com 1.10,2013-05-17 14:14:00,
2013-05-17 10:29:00,64.9,45.0,29.97,North,360,5.0,-999.0,48,-99.99,,,0.00,weatherlink.com 1.10,2013-05-17 14:29:00,
2013-05-17 10:44:00,64.7,44.0,29.98,West,279,1.0,-999.0,47,-99.99,,,0.00,weatherlink.com 1.10,2013-05-17 14:44:00,
2013-05-17 10:59:00,65.7,45.0,29.98,West,267,8.0,-999.0,48,-99.99,,,0.00,weatherlink.com 1.10,2013-05-17 14:59:00,
2013-05-17 11:14:00,66.0,45.0,29.98,NNE,15,4.0,-999.0,47,-99.99,,,0.00,weatherlink.com 1.10,2013-05-17 15:14:00,
2013-05-17 11:29:00,66.8,46.0,29.98,West,260,6.0,-999.0,47,-99.99,,,0.00,weatherlink.com 1.10,2013-05-17 15:29:00,
2013-05-17 11:44:00,67.6,45.0,29.98,West,273,9.0,-999.0,45,-99.99,,,0.00,weatherlink.com 1.10,2013-05-17 15:44:00,
2013-05-17 11:59:00,67.3,44.0,29.99,WSW,248,4.0,-999.0,43,-99.99,,,0.00,weatherlink.com 1.10,2013-05-17 15:59:00,
2013-05-17 12:14:00,67.7,45.0,29.98,WSW,254,11.0,-999.0,45,-99.99,,,0.00,weatherlink.com 1.10,2013-05-17 16:14:00,
2013-05-17 12:29:00,67.8,45.0,29.98,WSW,241,3.0,-999.0,44,-99.99,,,0.00,weatherlink.com 1.10,2013-05-17 16:29:00,
2013-05-17 12:44:00,68.6,44.0,29.99,WNW,301,7.0,-999.0,42,-99.99,,,0.00,weatherlink.com 1.10,2013-05-17 16:44:00,
2013-05-17 12:59:00,68.8,45.0,29.98,NNW,328,9.0,-999.0,42,-99.99,,,0.00,weatherlink.com 1.10,2013-05-17 16:59:00,
2013-05-17 13:14:00,70.1,43.0,29.98,NNE,19,6.0,-999.0,38,-99.99,,,0.00,weatherlink.com 1.10,2013-05-17 17:14:00,
2013-05-17 13:29:00,70.4,45.0,29.99,NNW,337,11.0,-999.0,41,-99.99,,,0.00,weatherlink.com 1.10,2013-05-17 17:29:00,
2013-05-17 13:44:00,70.1,44.0,29.99,West,269,7.0,-999.0,39,-99.99,,,0.00,weatherlink.com 1.10,2013-05-17 17:44:00,
2013-05-17 13:59:00,70.6,44.0,29.99,North,5,8.0,-999.0,38,-99.99,,,0.00,weatherlink.com 1.10,2013-05-17 17:59:00,
2013-05-17 14:14:00,70.6,44.0,29.99,WNW,298,9.0,-999.0,38,-99.99,,,0.00,weatherlink.com 1.10,2013-05-17 18:14:00,
2013-05-17 14:29:00,70.7,43.0,29.99,WNW,287,5.0,-999.0,37,-99.99,,,0.00,weatherlink.com 1.10,2013-05-17 18:29:00,
2013-05-17 14:44:00,71.2,43.0,29.98,West,277,9.0,-999.0,37,-99.99,,,0.00,weatherlink.com 1.10,2013-05-17 18:44:00,
2013-05-17 14:59:00,71.7,44.0,29.98,ESE,115,1.0,-999.0,37,-99.99,,,0.00,weatherlink.com 1.10,2013-05-17 18:59:00,
2013-05-17 15:14:00,71.6,44.0,29.99,West,265,10.0,-999.0,37,-99.99,,,0.00,weatherlink.com 1.10,2013-05-17 19:14:00,
2013-05-17 15:29:00,71.4,42.0,29.99,NW,312,5.0,-999.0,35,-99.99,,,0.00,weatherlink.com 1.10,2013-05-17 19:29:00,
2013-05-17 15:44:00,71.8,43.0,29.98,WSW,258,10.0,-999.0,36,-99.99,,,0.00,weatherlink.com 1.10,2013-05-17 19:44:00,
2013-05-17 15:59:00,72.3,44.0,29.98,NNW,347,2.0,-999.0,36,-99.99,,,0.00,weatherlink.com 1.10,2013-05-17 19:59:00,
2013-05-17 16:14:00,72.8,43.0,29.98,NW,311,5.0,-999.0,34,-99.99,,,0.00,weatherlink.com 1.10,2013-05-17 20:14:00,
2013-05-17 16:29:00,72.5,42.0,29.98,NW,326,4.0,-999.0,33,-99.99,,,0.00,weatherlink.com 1.10,2013-05-17 20:29:00,
2013-05-17 16:44:00,72.6,43.0,29.99,NW,318,6.0,-999.0,35,-99.99,,,0.00,weatherlink.com 1.10,2013-05-17 20:44:00,
2013-05-17 16:59:00,72.2,44.0,29.98,West,269,4.0,-999.0,36,-99.99,,,0.00,weatherlink.com 1.10,2013-05-17 20:59:00,
2013-05-17 17:14:00,72.6,43.0,29.99,NNW,344,0.0,-999.0,35,-99.99,,,0.00,weatherlink.com 1.10,2013-05-17 21:14:00,
2013-05-17 17:29:00,73.0,43.0,29.99,NNW,344,2.0,-999.0,34,-99.99,,,0.00,weatherlink.com 1.10,2013-05-17 21:29:00,
2013-05-17 17:44:00,72.7,43.0,30.00,NW,315,2.0,-999.0,34,-99.99,,,0.00,weatherlink.com 1.10,2013-05-17 21:44:00,
2013-05-17 17:59:00,72.4,43.0,30.00,WNW,303,0.0,-999.0,35,-99.99,,,0.00,weatherlink.com 1.10,2013-05-17 21:59:00,
2013-05-17 18:14:00,72.9,42.0,30.00,West,259,6.0,-999.0,33,-99.99,,,0.00,weatherlink.com 1.10,2013-05-17 22:14:00,
2013-05-17 18:29:00,72.8,43.0,30.00,WSW,244,4.0,-999.0,34,-99.99,,,0.00,weatherlink.com 1.10,2013-05-17 22:29:00,
2013-05-17 18:44:00,73.0,42.0,30.01,NNW,327,0.0,-999.0,33,-99.99,,,0.00,weatherlink.com 1.10,2013-05-17 22:44:00,
2013-05-17 18:59:00,73.0,43.0,30.01,SW,228,5.0,-999.0,34,-99.99,,,0.00,weatherlink.com 1.10,2013-05-17 22:59:00,
2013-05-17 19:14:00,72.8,44.0,30.01,WSW,258,2.0,-999.0,35,-99.99,,,0.00,weatherlink.com 1.10,2013-05-17 23:14:00,
2013-05-17 19:29:00,72.2,44.0,30.02,WSW,240,2.0,-999.0,36,-99.99,,,0.00,weatherlink.com 1.10,2013-05-17 23:29:00,
2013-05-17 19:44:00,71.3,44.0,30.02,WSW,240,0.0,-999.0,38,-99.99,,,0.00,weatherlink.com 1.10,2013-05-17 23:44:00,
2013-05-17 19:59:00,69.8,45.0,30.02,WSW,240,1.0,-999.0,41,-99.99,,,0.00,weatherlink.com 1.10,2013-05-17 23:59:00,
2013-05-17 20:14:00,68.3,47.0,30.03,WSW,240,0.0,-999.0,46,-99.99,,,0.00,weatherlink.com 1.10,2013-05-18 00:14:00,
2013-05-17 20:29:00,66.2,47.0,30.04,WSW,240,0.0,-999.0,51,-99.99,,,0.00,weatherlink.com 1.10,2013-05-18 00:29:00,
2013-05-17 20:44:00,64.4,46.0,30.04,WSW,240,0.0,-999.0,52,-99.99,,,0.00,weatherlink.com 1.10,2013-05-18 00:44:00,
2013-05-17 20:59:00,63.6,46.0,30.05,WSW,240,0.0,-999.0,54,-99.99,,,0.00,weatherlink.com 1.10,2013-05-18 00:59:00,
2013-05-17 21:14:00,62.7,47.0,30.06,WSW,240,0.0,-999.0,57,-99.99,,,0.00,weatherlink.com 1.10,2013-05-18 01:14:00,
2013-05-17 21:29:00,61.9,47.0,30.06,WSW,240,0.0,-999.0,59,-99.99,,,0.00,weatherlink.com 1.10,2013-05-18 01:29:00,
2013-05-17 21:44:00,61.2,48.0,30.07,WSW,240,0.0,-999.0,63,-99.99,,,0.00,weatherlink.com 1.10,2013-05-18 01:44:00,
2013-05-17 21:59:00,60.5,49.0,30.08,WSW,240,0.0,-999.0,65,-99.99,,,0.00,weatherlink.com 1.10,2013-05-18 01:59:00,
2013-05-17 22:14:00,60.2,49.0,30.08,WSW,240,1.0,-999.0,66,-99.99,,,0.00,weatherlink.com 1.10,2013-05-18 02:14:00,
2013-05-17 22:29:00,59.9,49.0,30.08,WSW,240,0.0,-999.0,67,-99.99,,,0.00,weatherlink.com 1.10,2013-05-18 02:29:00,
2013-05-17 22:44:00,59.2,49.0,30.08,WSW,240,0.0,-999.0,69,-99.99,,,0.00,weatherlink.com 1.10,2013-05-18 02:44:00,
2013-05-17 22:59:00,58.8,51.0,30.09,WSW,240,0.0,-999.0,76,-99.99,,,0.00,weatherlink.com 1.10,2013-05-18 02:59:00,
2013-05-17 23:14:00,58.1,49.0,30.09,WSW,240,0.0,-999.0,72,-99.99,,,0.00,weatherlink.com 1.10,2013-05-18 03:14:00,
2013-05-17 23:29:00,57.2,49.0,30.09,WSW,240,0.0,-999.0,74,-99.99,,,0.00,weatherlink.com 1.10,2013-05-18 03:29:00,
2013-05-17 23:44:00,56.5,49.0,30.10,WSW,240,0.0,-999.0,76,-99.99,,,0.00,weatherlink.com 1.10,2013-05-18 03:44:00,
2013-05-17 23:59:00,55.8,49.0,30.10,WSW,240,0.0,-999.0,78,-99.99,,,0.00,weatherlink.com 1.10,2013-05-18 03:59:00,